Time;durP1;ratioP1;P1;durP2;ratioP2;P2;SDS_P1;SDS_P2;PMS_P1;PMS_P2;Temp;Humidity;BMP_temperature;BMP_pressure;BME280_temperature;BME280_humidity;BME280_pressure;Samples;Min_cycle;Max_cycle;Signal;HPM_P1;HPM_P2
2022/03/19 00:08:40;;;;;;;1.27;0.80;;;9.70;68.00;;;;;;20643560;28;20038;-77
2022/03/19 00:18:41;;;;;;;2.33;0.80;;;9.70;68.00;;;;;;20642486;28;20042;-77
2022/03/19 00:28:41;;;;;;;4.22;1.05;;;9.70;67.90;;;;;;20642541;28;20121;-78
2022/03/19 00:38:42;;;;;;;2.88;0.95;;;9.70;67.90;;;;;;20642757;28;20393;-77
2022/03/19 00:48:43;;;;;;;3.10;1.60;;;9.60;67.80;;;;;;20625526;28;20026;-77
2022/03/19 00:58:44;;;;;;;2.95;1.00;;;9.60;67.70;;;;;;20609471;28;20121;-77
2022/03/19 01:08:44;;;;;;;2.53;0.90;;;9.60;67.70;;;;;;20626815;28;20121;-77
2022/03/19 01:18:45;;;;;;;5.78;1.00;;;9.60;67.70;;;;;;20640840;28;20049;-77
2022/03/19 01:28:46;;;;;;;2.25;1.00;;;9.70;67.70;;;;;;20646458;28;20047;-77
2022/03/19 01:38:47;;;;;;;3.92;0.73;;;9.60;67.70;;;;;;20654576;28;20030;-77
2022/03/19 01:48:48;;;;;;;3.05;1.75;;;9.60;67.60;;;;;;20637385;28;20072;-77
2022/03/19 01:58:48;;;;;;;4.30;1.63;;;9.60;67.60;;;;;;20636771;28;20180;-77
2022/03/19 02:08:49;;;;;;;5.50;1.02;;;9.60;67.60;;;;;;21016725;22;20049;-77
2022/03/19 02:18:50;;;;;;;3.67;0.93;;;9.60;67.60;;;;;;20612194;28;20049;-76
2022/03/19 02:28:51;;;;;;;3.78;1.45;;;9.60;67.60;;;;;;20668524;28;20074;-76
2022/03/19 02:38:51;;;;;;;1.33;0.90;;;9.60;67.50;;;;;;20617315;28;20126;-76
2022/03/19 02:48:52;;;;;;;2.30;1.00;;;9.60;67.40;;;;;;20633771;28;20038;-76
2022/03/19 02:58:53;;;;;;;3.25;1.17;;;9.50;67.20;;;;;;20666115;28;20065;-76
2022/03/19 03:08:55;;;;;;;2.33;0.80;;;9.50;67.10;;;;;;20615720;28;20121;-76
2022/03/19 03:18:56;;;;;;;5.50;1.40;;;9.50;67.00;;;;;;20615244;28;20031;-77
2022/03/19 03:28:57;;;;;;;3.47;1.33;;;9.50;67.00;;;;;;20613940;28;20614;-76
2022/03/19 03:38:58;;;;;;;3.08;1.15;;;9.50;66.90;;;;;;20629453;28;20466;-76
2022/03/19 03:48:58;;;;;;;4.72;1.50;;;9.50;66.80;;;;;;20612595;28;20058;-76
2022/03/19 03:58:59;;;;;;;5.38;1.65;;;9.50;66.60;;;;;;20595984;28;20121;-76
2022/03/19 04:08:59;;;;;;;2.40;1.13;;;9.50;66.60;;;;;;20627733;28;20372;-77
2022/03/19 04:19:00;;;;;;;3.27;1.37;;;9.50;66.50;;;;;;20627095;28;20034;-77
2022/03/19 04:29:00;;;;;;;3.67;1.38;;;9.40;66.30;;;;;;20610806;28;20379;-77
2022/03/19 04:39:05;;;;;;;4.97;1.75;;;9.40;66.20;;;;;;20610599;28;20030;-77
2022/03/19 04:49:05;;;;;;;4.50;1.08;;;9.40;66.10;;;;;;20612193;28;20062;-78
2022/03/19 04:59:06;;;;;;;4.35;1.40;;;9.40;66.00;;;;;;20594188;28;20125;-77
2022/03/19 05:19:26;;;;;;;3.00;1.45;;;9.30;65.70;;;;;;20658578;28;20044;-76
2022/03/19 05:29:27;;;;;;;3.78;1.60;;;9.40;66.30;;;;;;20639040;28;20092;-77
2022/03/19 05:39:28;;;;;;;1.73;1.23;;;9.30;65.60;;;;;;20638294;28;20034;-77
2022/03/19 05:49:28;;;;;;;4.93;1.48;;;9.30;65.50;;;;;;20621742;28;20034;-76
2022/03/19 05:59:29;;;;;;;1.95;1.25;;;9.30;65.40;;;;;;20637308;28;20030;-76
2022/03/19 06:09:30;;;;;;;2.60;1.02;;;9.30;65.30;;;;;;20620390;28;20577;-77
2022/03/19 06:19:30;;;;;;;2.03;1.23;;;9.30;65.30;;;;;;20636766;28;20157;-76
2022/03/19 06:29:33;;;;;;;3.55;1.75;;;9.30;65.30;;;;;;20635007;28;20807;-77
2022/03/19 06:39:33;;;;;;;2.72;1.23;;;9.30;65.40;;;;;;20634542;28;20161;-76
2022/03/19 06:49:34;;;;;;;0.93;0.63;;;9.30;65.50;;;;;;20588039;28;20039;-77
2022/03/19 06:59:34;;;;;;;2.78;1.20;;;9.30;65.60;;;;;;20446609;28;20043;-79
2022/03/19 07:09:35;;;;;;;3.03;1.40;;;9.30;65.70;;;;;;20550630;28;20042;-77
2022/03/19 07:19:36;;;;;;;3.17;1.30;;;9.30;65.70;;;;;;20534654;28;20042;-80
2022/03/19 07:29:36;;;;;;;1.70;0.90;;;9.30;65.80;;;;;;20483726;28;20036;-76
2022/03/19 07:39:37;;;;;;;3.13;1.00;;;9.30;65.90;;;;;;20515186;28;20038;-73
2022/03/19 07:49:39;;;;;;;2.75;0.95;;;9.30;66.00;;;;;;20559863;28;20121;-74
2022/03/19 07:59:40;;;;;;;2.60;1.20;;;9.30;66.00;;;;;;20563009;28;20386;-76
2022/03/19 08:09:40;;;;;;;1.92;0.85;;;9.30;66.10;;;;;;20577978;28;20045;-76
2022/03/19 08:19:44;;;;;;;2.75;0.93;;;9.30;66.10;;;;;;20545112;28;20127;-75
2022/03/19 08:29:44;;;;;;;2.22;1.48;;;9.30;66.20;;;;;;20545457;28;20035;-83
2022/03/19 08:50:04;;;;;;;8.35;1.60;;;9.30;66.20;;;;;;20580980;28;20034;-78
2022/03/19 09:00:07;;;;;;;7.80;1.88;;;9.40;66.10;;;;;;20577100;28;20049;-78
2022/03/19 09:10:09;;;;;;;8.05;1.77;;;9.40;66.00;;;;;;20551184;28;20138;-78
2022/03/19 09:20:10;;;;;;;6.40;1.08;;;9.50;66.10;;;;;;20433521;28;20036;-76
2022/03/19 09:30:11;;;;;;;4.63;1.27;;;9.50;66.80;;;;;;20474821;29;20047;-75
2022/03/19 09:40:12;;;;;;;6.35;0.90;;;9.60;66.30;;;;;;20531570;28;20053;-74
2022/03/19 09:50:12;;;;;;;4.33;1.00;;;9.50;66.30;;;;;;20570681;28;20545;-75
2022/03/19 10:00:13;;;;;;;3.85;0.75;;;9.60;66.40;;;;;;20506920;28;20290;-74
2022/03/19 10:10:14;;;;;;;4.13;0.80;;;9.50;66.40;;;;;;20571330;28;20410;-74
2022/03/19 10:20:15;;;;;;;3.00;1.00;;;9.60;66.50;;;;;;20568138;28;20031;-75
2022/03/19 10:30:19;;;;;;;1.23;0.60;;;9.60;66.50;;;;;;20505392;28;20397;-73
2022/03/19 10:40:20;;;;;;;1.75;0.70;;;9.50;66.50;;;;;;20585073;28;20479;-72
2022/03/19 10:50:22;;;;;;;1.60;0.82;;;9.60;66.50;;;;;;20582554;28;20039;-80
2022/03/19 11:00:23;;;;;;;1.75;0.60;;;9.60;66.60;;;;;;20488195;28;20039;-75
2022/03/19 11:10:24;;;;;;;2.65;0.60;;;9.60;66.60;;;;;;20528478;28;20142;-73
2022/03/19 11:20:25;;;;;;;1.85;0.80;;;9.60;66.60;;;;;;20564469;28;20041;-79
2022/03/19 11:30:28;;;;;;;3.38;0.77;;;9.60;66.70;;;;;;20487955;29;20476;-82
2022/03/19 11:40:35;;;;;;;1.55;0.75;;;9.60;67.40;;;;;;21233040;27;20393;-76
2022/03/19 11:50:36;;;;;;;1.58;0.75;;;9.60;66.70;;;;;;21178126;28;20040;-77
2022/03/19 12:00:38;;;;;;;3.03;0.50;;;9.70;66.70;;;;;;21162142;28;20434;-75
2022/03/19 12:11:01;;;;;;;1.50;0.77;;;9.60;66.50;;;;;;21165449;28;20031;-75
2022/03/19 12:21:08;;;;;;;1.55;0.40;;;9.60;66.50;;;;;;21212412;28;20177;-76
2022/03/19 12:31:12;;;;;;;0.90;0.40;;;9.60;66.40;;;;;;21195514;28;20054;-78
2022/03/19 12:41:24;;;;;;;1.50;0.60;;;9.60;66.30;;;;;;21178084;28;20035;-75
2022/03/19 12:51:25;;;;;;;2.83;0.60;;;9.60;66.30;;;;;;21140091;28;20050;-75
2022/03/19 13:01:27;;;;;;;5.80;0.70;;;9.60;65.90;;;;;;21136872;28;20036;-75
2022/03/19 13:11:50;;;;;;;3.15;0.47;;;9.60;65.00;;;;;;21118837;28;20378;-75
2022/03/19 13:21:52;;;;;;;2.72;0.50;;;9.60;64.50;;;;;;21135632;28;20088;-79
2022/03/19 13:31:57;;;;;;;2.72;0.63;;;9.70;64.60;;;;;;21151784;27;20039;-78
2022/03/19 13:42:02;;;;;;;;;;;9.70;64.80;;;;;;21127877;28;20092;-74
2022/03/19 13:52:03;;;;;;;1.80;0.50;;;9.80;65.00;;;;;;21144076;28;20031;-77
2022/03/19 14:02:04;;;;;;;1.45;0.50;;;9.80;65.20;;;;;;21158598;28;20107;-79
2022/03/19 14:12:05;;;;;;;1.70;0.68;;;9.90;65.50;;;;;;21128061;28;20046;-76
2022/03/19 14:22:05;;;;;;;10.05;1.35;;;9.90;65.60;;;;;;21125861;28;20036;-73
2022/03/19 14:32:07;;;;;;;8.65;1.40;;;9.90;65.50;;;;;;21162256;27;20046;-72
2022/03/19 14:42:08;;;;;;;6.45;0.65;;;9.90;60.50;;;;;;21105595;28;20050;-79
2022/03/19 14:52:08;;;;;;;10.23;0.98;;;10.00;58.20;;;;;;21122539;28;20043;-80
2022/03/19 15:02:09;;;;;;;3.80;0.55;;;9.90;58.40;;;;;;21121659;28;20126;-80
2022/03/19 15:12:10;;;;;;;3.25;0.70;;;10.00;59.10;;;;;;21105010;28;20042;-79
2022/03/19 15:22:10;;;;;;;4.07;0.57;;;10.10;59.80;;;;;;21138651;28;20036;-80
2022/03/19 15:32:11;;;;;;;3.60;0.55;;;10.20;60.30;;;;;;21121917;27;20044;-79
2022/03/19 15:42:11;;;;;;;4.03;1.10;;;10.20;58.20;;;;;;21105058;28;20127;-80
2022/03/19 15:52:12;;;;;;;3.23;1.30;;;10.30;56.30;;;;;;21119648;28;20043;-79
2022/03/19 16:02:13;;;;;;;3.00;0.82;;;10.30;56.50;;;;;;21097875;28;20281;-77
2022/03/19 16:12:15;;;;;;;4.18;1.08;;;10.40;55.90;;;;;;21122643;28;20047;-76
2022/03/19 16:22:15;;;;;;;3.95;1.35;;;10.40;54.20;;;;;;21120095;28;20052;-75
2022/03/19 16:32:16;;;;;;;6.38;1.10;;;10.40;54.30;;;;;;21138546;27;20065;-76
2022/03/19 16:42:16;;;;;;;4.72;0.88;;;10.30;54.90;;;;;;21078203;27;20054;-75
2022/03/19 16:52:17;;;;;;;2.17;0.77;;;10.30;55.70;;;;;;21111034;28;20028;-77
2022/03/19 17:02:19;;;;;;;1.35;0.65;;;10.30;56.60;;;;;;21160652;27;20039;-77
2022/03/19 17:12:20;;;;;;;2.70;0.40;;;10.30;57.30;;;;;;21157379;27;20641;-77
2022/03/19 17:22:20;;;;;;;0.32;0.20;;;10.30;58.00;;;;;;21162763;27;20034;-73
2022/03/19 17:32:21;;;;;;;1.15;0.45;;;10.30;58.60;;;;;;21127954;28;20039;-72
2022/03/19 17:42:23;;;;;;;4.50;0.73;;;10.30;59.10;;;;;;21102465;27;20039;-80
2022/03/19 17:52:26;;;;;;;2.58;0.55;;;10.20;59.60;;;;;;21141431;27;20085;-77
2022/03/19 18:02:27;;;;;;;2.50;0.63;;;10.20;59.90;;;;;;21133133;28;20098;-78
2022/03/19 18:12:27;;;;;;;2.45;1.05;;;10.20;60.30;;;;;;21160341;27;20579;-78
2022/03/19 18:22:28;;;;;;;0.68;0.50;;;10.10;60.50;;;;;;21181459;27;20042;-79
2022/03/19 18:32:29;;;;;;;0.63;0.43;;;10.10;60.80;;;;;;21195710;27;20126;-78
2022/03/19 18:42:34;;;;;;;1.60;1.00;;;10.10;61.00;;;;;;21175774;27;20035;-77
2022/03/19 18:52:35;;;;;;;1.20;0.60;;;10.10;61.20;;;;;;21206619;27;20692;-79
2022/03/19 19:02:36;;;;;;;2.15;0.95;;;10.10;61.40;;;;;;21172264;27;20077;-80
2022/03/19 19:12:36;;;;;;;2.40;0.70;;;10.10;61.50;;;;;;21150223;27;20088;-77
2022/03/19 19:22:37;;;;;;;1.83;0.55;;;10.10;62.30;;;;;;21118333;28;20354;-78
2022/03/19 19:32:38;;;;;;;2.50;0.90;;;10.00;61.70;;;;;;21100815;28;20040;-80
2022/03/19 19:42:38;;;;;;;1.20;0.50;;;10.00;61.80;;;;;;21135872;28;20284;-76
2022/03/19 19:52:43;;;;;;;3.53;0.70;;;10.00;62.00;;;;;;21132214;28;20289;-76
2022/03/19 20:02:44;;;;;;;4.55;0.60;;;10.00;62.00;;;;;;21140627;28;20362;-75
2022/03/19 20:12:46;;;;;;;3.10;1.10;;;10.00;62.10;;;;;;21140340;28;20035;-78
2022/03/19 20:22:47;;;;;;;1.38;0.82;;;10.00;62.30;;;;;;21122105;28;20458;-78
2022/03/19 20:32:48;;;;;;;1.90;0.80;;;10.00;62.40;;;;;;21145987;27;20099;-77
2022/03/19 20:42:53;;;;;;;2.05;0.73;;;10.00;62.40;;;;;;21104284;28;20288;-71
2022/03/19 20:52:57;;;;;;;1.02;0.60;;;10.00;62.50;;;;;;21151118;28;20036;-75
2022/03/19 21:02:58;;;;;;;1.17;0.50;;;10.00;62.60;;;;;;21152514;28;20039;-74
2022/03/19 21:13:02;;;;;;;1.75;0.60;;;10.00;62.70;;;;;;21134237;28;20032;-73
2022/03/19 21:23:04;;;;;;;1.38;0.80;;;10.00;62.80;;;;;;21135641;28;20038;-74
2022/03/19 21:33:05;;;;;;;1.38;0.85;;;9.90;62.90;;;;;;21133840;28;20489;-74
2022/03/19 21:43:06;;;;;;;3.03;0.73;;;9.90;62.90;;;;;;21116092;28;20485;-74
2022/03/19 21:53:06;;;;;;;1.08;0.70;;;9.90;62.90;;;;;;21131869;28;20068;-74
2022/03/19 22:03:10;;;;;;;1.98;0.90;;;9.90;62.90;;;;;;21130660;28;20074;-74
2022/03/19 22:13:10;;;;;;;1.30;0.80;;;9.90;63.10;;;;;;21131244;28;20102;-74
2022/03/19 22:23:11;;;;;;;1.58;0.82;;;9.90;63.10;;;;;;21147011;28;20062;-74
2022/03/19 22:33:12;;;;;;;1.75;0.70;;;9.90;63.20;;;;;;21129469;28;20039;-75
2022/03/19 22:43:12;;;;;;;1.25;0.70;;;9.90;63.20;;;;;;21144458;28;20039;-77
2022/03/19 22:53:13;;;;;;;3.00;1.13;;;9.90;63.30;;;;;;21143418;28;20047;-78
2022/03/19 23:03:14;;;;;;;1.13;0.70;;;9.90;63.30;;;;;;21126110;28;20051;-74
2022/03/19 23:13:14;;;;;;;1.83;0.90;;;9.90;63.40;;;;;;21143184;28;20032;-74
2022/03/19 23:23:15;;;;;;;2.13;1.00;;;9.90;63.40;;;;;;21142133;28;20028;-74
2022/03/19 23:33:17;;;;;;;1.88;1.25;;;9.80;63.40;;;;;;21142335;28;20070;-75
2022/03/19 23:43:17;;;;;;;4.50;1.27;;;9.90;63.50;;;;;;21141229;28;20035;-74
2022/03/19 23:53:18;;;;;;;4.10;1.00;;;9.80;63.50;;;;;;21125086;28;20039;-73
